sensor_id;sensor_type;location;lat;lon;timestamp;pressure;altitude;pressure_sealevel;temperature;humidity
10476;BME280;26166;48.264;11.436;2024-03-02T00:02:00;95168.22;;;10.12;67.40
10476;BME280;26166;48.264;11.436;2024-03-02T00:05:00;95165.78;;;10.10;67.63
10476;BME280;26166;48.264;11.436;2024-03-02T00:08:02;95164.97;;;10.10;67.28
10476;BME280;26166;48.264;11.436;2024-03-02T00:11:05;95164.97;;;10.10;67.66
10476;BME280;26166;48.264;11.436;2024-03-02T00:14:05;95158.94;;;10.09;67.54
10476;BME280;26166;48.264;11.436;2024-03-02T00:17:05;95162.16;;;10.11;67.45
10476;BME280;26166;48.264;11.436;2024-03-02T00:20:08;95154.50;;;10.10;67.27
10476;BME280;26166;48.264;11.436;2024-03-02T00:23:09;95148.22;;;10.11;67.59
10476;BME280;26166;48.264;11.436;2024-03-02T00:26:11;95151.88;;;10.10;67.58
10476;BME280;26166;48.264;11.436;2024-03-02T00:29:11;95147.00;;;10.07;67.76
10476;BME280;26166;48.264;11.436;2024-03-02T00:32:15;95140.13;;;10.06;67.35
10476;BME280;26166;48.264;11.436;2024-03-02T00:35:16;95141.13;;;10.05;67.51
10476;BME280;26166;48.264;11.436;2024-03-02T00:38:16;95128.63;;;10.07;67.57
10476;BME280;26166;48.264;11.436;2024-03-02T00:41:20;95127.63;;;10.08;67.37
10476;BME280;26166;48.264;11.436;2024-03-02T00:44:22;95129.22;;;10.09;67.36
10476;BME280;26166;48.264;11.436;2024-03-02T00:47:24;95135.47;;;10.08;67.51
10476;BME280;26166;48.264;11.436;2024-03-02T00:50:24;95136.13;;;10.10;67.49
10476;BME280;26166;48.264;11.436;2024-03-02T00:53:25;95142.34;;;10.09;67.50
10476;BME280;26166;48.264;11.436;2024-03-02T00:56:26;95145.81;;;10.09;67.48
10476;BME280;26166;48.264;11.436;2024-03-02T00:59:26;95154.66;;;10.08;67.24
10476;BME280;26166;48.264;11.436;2024-03-02T01:02:27;95145.97;;;10.08;67.44
10476;BME280;26166;48.264;11.436;2024-03-02T01:05:27;95161.72;;;10.08;67.27
10476;BME280;26166;48.264;11.436;2024-03-02T01:08:28;95154.84;;;10.07;67.20
10476;BME280;26166;48.264;11.436;2024-03-02T01:11:29;95155.66;;;10.07;67.30
10476;BME280;26166;48.264;11.436;2024-03-02T01:14:30;95152.84;;;10.09;67.45
10476;BME280;26166;48.264;11.436;2024-03-02T01:17:30;95156.47;;;10.08;67.38
10476;BME280;26166;48.264;11.436;2024-03-02T01:20:30;95154.84;;;10.07;67.21
10476;BME280;26166;48.264;11.436;2024-03-02T01:23:30;95147.19;;;10.05;67.21
10476;BME280;26166;48.264;11.436;2024-03-02T01:26:30;95148.00;;;10.06;67.44
10476;BME280;26166;48.264;11.436;2024-03-02T01:29:30;95163.75;;;10.06;67.37
10476;BME280;26166;48.264;11.436;2024-03-02T01:32:31;95153.25;;;10.06;67.04
10476;BME280;26166;48.264;11.436;2024-03-02T01:35:31;95156.88;;;10.05;67.38
10476;BME280;26166;48.264;11.436;2024-03-02T01:38:31;95150.63;;;10.06;67.43
10476;BME280;26166;48.264;11.436;2024-03-02T01:41:31;95152.44;;;10.05;67.10
10476;BME280;26166;48.264;11.436;2024-03-02T01:44:32;95147.34;;;10.04;67.20
10476;BME280;26166;48.264;11.436;2024-03-02T01:47:32;95146.38;;;10.05;67.60
10476;BME280;26166;48.264;11.436;2024-03-02T01:50:32;95144.56;;;10.05;67.51
10476;BME280;26166;48.264;11.436;2024-03-02T01:53:33;95139.50;;;10.04;67.19
10476;BME280;26166;48.264;11.436;2024-03-02T01:56:33;95138.69;;;10.03;67.14
10476;BME280;26166;48.264;11.436;2024-03-02T01:59:34;95137.66;;;10.04;67.15
10476;BME280;26166;48.264;11.436;2024-03-02T02:02:34;95129.81;;;10.04;67.26
10476;BME280;26166;48.264;11.436;2024-03-02T02:05:34;95132.63;;;10.03;67.66
10476;BME280;26166;48.264;11.436;2024-03-02T02:08:36;95126.56;;;10.02;67.37
10476;BME280;26166;48.264;11.436;2024-03-02T02:11:36;95114.25;;;10.03;67.45
10476;BME280;26166;48.264;11.436;2024-03-02T02:14:36;95112.66;;;10.02;67.54
10476;BME280;26166;48.264;11.436;2024-03-02T02:17:37;95120.50;;;10.02;67.58
10476;BME280;26166;48.264;11.436;2024-03-02T02:20:37;95121.13;;;10.04;67.43
10476;BME280;26166;48.264;11.436;2024-03-02T02:23:37;95124.56;;;10.04;67.50
10476;BME280;26166;48.264;11.436;2024-03-02T02:26:37;95125.41;;;10.05;67.16
10476;BME280;26166;48.264;11.436;2024-03-02T02:29:37;95124.38;;;10.06;67.13
10476;BME280;26166;48.264;11.436;2024-03-02T02:32:38;95126.38;;;10.04;66.96
10476;BME280;26166;48.264;11.436;2024-03-02T02:35:38;95124.75;;;10.03;67.34
10476;BME280;26166;48.264;11.436;2024-03-02T02:38:39;95123.94;;;10.02;67.46
10476;BME280;26166;48.264;11.436;2024-03-02T02:41:41;95130.00;;;10.03;66.99
10476;BME280;26166;48.264;11.436;2024-03-02T02:44:41;95124.97;;;10.01;67.06
10476;BME280;26166;48.264;11.436;2024-03-02T02:47:41;95120.50;;;10.02;67.20
10476;BME280;26166;48.264;11.436;2024-03-02T02:50:41;95115.28;;;10.02;67.01
10476;BME280;26166;48.264;11.436;2024-03-02T02:53:42;95110.19;;;10.00;67.41
10476;BME280;26166;48.264;11.436;2024-03-02T02:56:42;95107.78;;;9.99;67.44
10476;BME280;26166;48.264;11.436;2024-03-02T02:59:42;95101.50;;;10.00;67.50
10476;BME280;26166;48.264;11.436;2024-03-02T03:02:42;95099.69;;;10.00;67.12
10476;BME280;26166;48.264;11.436;2024-03-02T03:05:43;95109.59;;;9.98;67.30
10476;BME280;26166;48.264;11.436;2024-03-02T03:08:43;95105.16;;;9.99;67.46
10476;BME280;26166;48.264;11.436;2024-03-02T03:11:43;95102.72;;;9.97;67.40
10476;BME280;26166;48.264;11.436;2024-03-02T03:14:44;95106.16;;;9.98;67.47
10476;BME280;26166;48.264;11.436;2024-03-02T03:17:44;95110.03;;;10.02;67.00
10476;BME280;26166;48.264;11.436;2024-03-02T03:20:46;95109.38;;;10.00;66.97
10476;BME280;26166;48.264;11.436;2024-03-02T03:23:46;95117.25;;;10.00;67.37
10476;BME280;26166;48.264;11.436;2024-03-02T03:26:46;95107.56;;;10.00;67.30
10476;BME280;26166;48.264;11.436;2024-03-02T03:29:46;95106.75;;;10.00;67.32
10476;BME280;26166;48.264;11.436;2024-03-02T03:32:46;95112.00;;;10.00;67.28
10476;BME280;26166;48.264;11.436;2024-03-02T03:35:48;95115.63;;;9.99;67.23
10476;BME280;26166;48.264;11.436;2024-03-02T03:38:48;95118.06;;;10.00;67.01
10476;BME280;26166;48.264;11.436;2024-03-02T03:41:48;95119.06;;;9.99;66.91
10476;BME280;26166;48.264;11.436;2024-03-02T03:44:48;95115.63;;;9.99;66.99
10476;BME280;26166;48.264;11.436;2024-03-02T03:47:48;95123.94;;;10.02;66.83
10476;BME280;26166;48.264;11.436;2024-03-02T03:50:49;95124.16;;;10.01;66.86
10476;BME280;26166;48.264;11.436;2024-03-02T03:53:49;95122.34;;;10.01;67.24
10476;BME280;26166;48.264;11.436;2024-03-02T03:56:49;95132.63;;;10.03;66.83
10476;BME280;26166;48.264;11.436;2024-03-02T03:59:49;95137.88;;;10.03;67.07
10476;BME280;26166;48.264;11.436;2024-03-02T04:02:49;95134.25;;;10.04;66.64
10476;BME280;26166;48.264;11.436;2024-03-02T04:05:49;95142.13;;;10.04;66.90
10476;BME280;26166;48.264;11.436;2024-03-02T04:08:50;95146.38;;;10.05;67.03
10476;BME280;26166;48.264;11.436;2024-03-02T04:11:50;95156.03;;;10.04;66.67
10476;BME280;26166;48.264;11.436;2024-03-02T04:14:50;95149.81;;;10.05;66.74
10476;BME280;26166;48.264;11.436;2024-03-02T04:17:50;95149.97;;;10.04;66.83
10476;BME280;26166;48.264;11.436;2024-03-02T04:20:50;95148.38;;;10.03;66.94
10476;BME280;26166;48.264;11.436;2024-03-02T04:23:50;95152.81;;;10.02;67.17
10476;BME280;26166;48.264;11.436;2024-03-02T04:26:51;95153.63;;;10.03;66.67
10476;BME280;26166;48.264;11.436;2024-03-02T04:29:52;95148.38;;;10.03;66.71
10476;BME280;26166;48.264;11.436;2024-03-02T04:32:52;95148.38;;;10.03;67.19
10476;BME280;26166;48.264;11.436;2024-03-02T04:35:52;95139.69;;;10.02;67.17
10476;BME280;26166;48.264;11.436;2024-03-02T04:38:52;95157.25;;;10.02;67.09
10476;BME280;26166;48.264;11.436;2024-03-02T04:41:52;95151.38;;;10.00;67.16
10476;BME280;26166;48.264;11.436;2024-03-02T04:44:53;95160.88;;;10.01;66.70
10476;BME280;26166;48.264;11.436;2024-03-02T04:47:53;95158.06;;;10.02;67.00
10476;BME280;26166;48.264;11.436;2024-03-02T04:50:53;95166.72;;;10.03;67.15
10476;BME280;26166;48.264;11.436;2024-03-02T04:53:53;95172.78;;;10.03;66.66
10476;BME280;26166;48.264;11.436;2024-03-02T04:56:54;95176.66;;;10.07;66.52
10476;BME280;26166;48.264;11.436;2024-03-02T04:59:54;95179.47;;;10.06;66.50
10476;BME280;26166;48.264;11.436;2024-03-02T05:02:54;95184.34;;;10.09;66.52
10476;BME280;26166;48.264;11.436;2024-03-02T05:05:54;95190.41;;;10.09;66.53
10476;BME280;26166;48.264;11.436;2024-03-02T05:08:54;95185.16;;;10.09;66.44
10476;BME280;26166;48.264;11.436;2024-03-02T05:11:54;95184.53;;;10.07;66.50
10476;BME280;26166;48.264;11.436;2024-03-02T05:15:04;95180.72;;;10.10;66.35
10476;BME280;26166;48.264;11.436;2024-03-02T05:18:04;95185.97;;;10.10;66.03
10476;BME280;26166;48.264;11.436;2024-03-02T05:21:05;95184.34;;;10.09;66.46
10476;BME280;26166;48.264;11.436;2024-03-02T05:24:05;95187.97;;;10.08;66.32
10476;BME280;26166;48.264;11.436;2024-03-02T05:27:05;95182.09;;;10.06;66.25
10476;BME280;26166;48.264;11.436;2024-03-02T05:30:07;95189.78;;;10.07;66.51
10476;BME280;26166;48.264;11.436;2024-03-02T05:33:08;95181.28;;;10.05;66.50
10476;BME280;26166;48.264;11.436;2024-03-02T05:36:08;95179.84;;;10.03;66.60
10476;BME280;26166;48.264;11.436;2024-03-02T05:39:09;95177.03;;;10.04;66.36
10476;BME280;26166;48.264;11.436;2024-03-02T05:42:15;95174.81;;;10.01;66.82
10476;BME280;26166;48.264;11.436;2024-03-02T05:45:17;95182.84;;;10.00;66.63
10476;BME280;26166;48.264;11.436;2024-03-02T05:48:17;95182.84;;;10.00;66.51
10476;BME280;26166;48.264;11.436;2024-03-02T05:51:17;95184.66;;;9.99;66.62
10476;BME280;26166;48.264;11.436;2024-03-02T05:54:17;95181.66;;;10.02;66.33
10476;BME280;26166;48.264;11.436;2024-03-02T05:57:18;95174.81;;;10.01;66.56
10476;BME280;26166;48.264;11.436;2024-03-02T06:00:33;95174.16;;;9.99;66.33
10476;BME280;26166;48.264;11.436;2024-03-02T06:03:34;95180.22;;;10.00;66.80
10476;BME280;26166;48.264;11.436;2024-03-02T06:06:34;95175.97;;;9.99;66.67
10476;BME280;26166;48.264;11.436;2024-03-02T06:09:34;95183.66;;;10.00;66.62
10476;BME280;26166;48.264;11.436;2024-03-02T06:12:34;95175.78;;;10.00;66.74
10476;BME280;26166;48.264;11.436;2024-03-02T06:15:34;95186.47;;;9.99;66.93
10476;BME280;26166;48.264;11.436;2024-03-02T06:18:36;95187.28;;;9.99;66.63
10476;BME280;26166;48.264;11.436;2024-03-02T06:21:36;95188.09;;;10.00;66.66
10476;BME280;26166;48.264;11.436;2024-03-02T06:24:36;95188.91;;;10.00;67.01
10476;BME280;26166;48.264;11.436;2024-03-02T06:27:37;95193.53;;;9.98;66.87
10476;BME280;26166;48.264;11.436;2024-03-02T06:30:37;95191.72;;;9.99;66.75
10476;BME280;26166;48.264;11.436;2024-03-02T06:33:38;95186.47;;;9.99;66.87
10476;BME280;26166;48.264;11.436;2024-03-02T06:36:38;95188.09;;;10.00;66.80
10476;BME280;26166;48.264;11.436;2024-03-02T06:39:38;95193.34;;;10.00;66.72
10476;BME280;26166;48.264;11.436;2024-03-02T06:42:38;95191.91;;;9.97;66.78
10476;BME280;26166;48.264;11.436;2024-03-02T06:45:39;95185.47;;;10.00;66.86
10476;BME280;26166;48.264;11.436;2024-03-02T06:48:39;95190.91;;;9.98;66.74
10476;BME280;26166;48.264;11.436;2024-03-02T06:51:39;95190.09;;;9.98;66.58
10476;BME280;26166;48.264;11.436;2024-03-02T06:54:42;95182.22;;;9.98;66.67
10476;BME280;26166;48.264;11.436;2024-03-02T06:57:42;95186.47;;;9.99;66.65
10476;BME280;26166;48.264;11.436;2024-03-02T07:00:42;95187.47;;;9.98;66.90
10476;BME280;26166;48.264;11.436;2024-03-02T07:03:44;95184.66;;;9.99;66.91
10476;BME280;26166;48.264;11.436;2024-03-02T07:06:44;95193.53;;;9.98;66.64
10476;BME280;26166;48.264;11.436;2024-03-02T07:09:44;95185.66;;;9.98;66.78
10476;BME280;26166;48.264;11.436;2024-03-02T07:12:44;95190.31;;;9.96;66.71
10476;BME280;26166;48.264;11.436;2024-03-02T07:15:44;95193.09;;;9.95;67.02
10476;BME280;26166;48.264;11.436;2024-03-02T07:19:03;95193.75;;;9.97;66.94
10476;BME280;26166;48.264;11.436;2024-03-02T07:22:05;95196.34;;;9.97;66.83
10476;BME280;26166;48.264;11.436;2024-03-02T07:25:05;95197.34;;;9.96;66.93
10476;BME280;26166;48.264;11.436;2024-03-02T07:28:07;95191.13;;;9.97;67.05
10476;BME280;26166;48.264;11.436;2024-03-02T07:31:07;95191.91;;;9.97;66.80
10476;BME280;26166;48.264;11.436;2024-03-02T07:34:07;95197.97;;;9.98;67.04
10476;BME280;26166;48.264;11.436;2024-03-02T07:37:07;95200.97;;;9.95;67.27
10476;BME280;26166;48.264;11.436;2024-03-02T07:40:08;95210.44;;;9.96;67.19
10476;BME280;26166;48.264;11.436;2024-03-02T07:43:11;95204.41;;;9.95;67.17
10476;BME280;26166;48.264;11.436;2024-03-02T07:46:11;95206.22;;;9.95;66.97
10476;BME280;26166;48.264;11.436;2024-03-02T07:49:12;95207.81;;;9.96;66.73
10476;BME280;26166;48.264;11.436;2024-03-02T07:52:13;95205.22;;;9.96;67.20
10476;BME280;26166;48.264;11.436;2024-03-02T07:55:13;95197.34;;;9.96;66.95
10476;BME280;26166;48.264;11.436;2024-03-02T07:58:13;95204.22;;;9.97;67.25
10476;BME280;26166;48.264;11.436;2024-03-02T08:01:14;95203.22;;;9.98;67.06
10476;BME280;26166;48.264;11.436;2024-03-02T08:04:14;95210.91;;;9.99;66.93
10476;BME280;26166;48.264;11.436;2024-03-02T08:07:14;95216.59;;;10.03;66.89
10476;BME280;26166;48.264;11.436;2024-03-02T08:10:15;95222.63;;;10.03;67.14
10476;BME280;26166;48.264;11.436;2024-03-02T08:13:15;95220.22;;;10.02;67.34
10476;BME280;26166;48.264;11.436;2024-03-02T08:16:16;95228.69;;;10.04;67.25
10476;BME280;26166;48.264;11.436;2024-03-02T08:19:16;95229.50;;;10.04;67.44
10476;BME280;26166;48.264;11.436;2024-03-02T08:22:16;95226.06;;;10.04;67.35
10476;BME280;26166;48.264;11.436;2024-03-02T08:25:17;95230.34;;;10.05;67.48
10476;BME280;26166;48.264;11.436;2024-03-02T08:28:17;95227.06;;;10.03;67.53
10476;BME280;26166;48.264;11.436;2024-03-02T08:31:17;95231.16;;;10.05;67.36
10476;BME280;26166;48.264;11.436;2024-03-02T08:34:17;95235.75;;;10.03;68.00
10476;BME280;26166;48.264;11.436;2024-03-02T08:37:18;95237.22;;;10.06;67.69
10476;BME280;26166;48.264;11.436;2024-03-02T08:40:20;95228.13;;;10.08;67.77
10476;BME280;26166;48.264;11.436;2024-03-02T08:43:21;95222.72;;;10.10;67.81
10476;BME280;26166;48.264;11.436;2024-03-02T08:46:22;95227.31;;;10.08;67.75
10476;BME280;26166;48.264;11.436;2024-03-02T08:49:22;95230.75;;;10.08;67.69
10476;BME280;26166;48.264;11.436;2024-03-02T08:52:23;95226.50;;;10.07;67.55
10476;BME280;26166;48.264;11.436;2024-03-02T08:55:23;95224.91;;;10.06;67.62
10476;BME280;26166;48.264;11.436;2024-03-02T08:58:24;95222.06;;;10.08;67.54
10476;BME280;26166;48.264;11.436;2024-03-02T09:01:24;95226.31;;;10.09;67.87
10476;BME280;26166;48.264;11.436;2024-03-02T09:04:24;95231.56;;;10.09;68.15
10476;BME280;26166;48.264;11.436;2024-03-02T09:07:24;95231.56;;;10.09;68.29
10476;BME280;26166;48.264;11.436;2024-03-02T09:10:24;95231.75;;;10.07;68.21
10476;BME280;26166;48.264;11.436;2024-03-02T09:13:25;95231.56;;;10.09;68.22
10476;BME280;26166;48.264;11.436;2024-03-02T09:16:28;95227.97;;;10.10;68.34
10476;BME280;26166;48.264;11.436;2024-03-02T09:19:30;95234.00;;;10.10;68.75
10476;BME280;26166;48.264;11.436;2024-03-02T09:22:30;95230.94;;;10.07;68.55
10476;BME280;26166;48.264;11.436;2024-03-02T09:25:32;95235.19;;;10.08;68.68
10476;BME280;26166;48.264;11.436;2024-03-02T09:28:32;95230.38;;;10.11;68.43
10476;BME280;26166;48.264;11.436;2024-03-02T09:31:32;95230.19;;;10.13;68.24
10476;BME280;26166;48.264;11.436;2024-03-02T09:34:32;95236.25;;;10.14;68.17
10476;BME280;26166;48.264;11.436;2024-03-02T09:37:37;95226.75;;;10.13;68.02
10476;BME280;26166;48.264;11.436;2024-03-02T09:40:41;95218.06;;;10.12;68.08
10476;BME280;26166;48.264;11.436;2024-03-02T09:43:41;95218.72;;;10.14;68.34
10476;BME280;26166;48.264;11.436;2024-03-02T09:46:41;95214.44;;;10.13;68.07
10476;BME280;26166;48.264;11.436;2024-03-02T09:49:43;95217.88;;;10.14;68.31
10476;BME280;26166;48.264;11.436;2024-03-02T09:52:44;95207.22;;;10.15;68.09
10476;BME280;26166;48.264;11.436;2024-03-02T09:55:47;95211.44;;;10.16;68.24
10476;BME280;26166;48.264;11.436;2024-03-02T09:58:47;95209.84;;;10.15;68.63
10476;BME280;26166;48.264;11.436;2024-03-02T10:01:57;95204.38;;;10.17;68.45
10476;BME280;26166;48.264;11.436;2024-03-02T10:04:58;95207.66;;;10.19;68.31
10476;BME280;26166;48.264;11.436;2024-03-02T10:07:59;95205.03;;;10.19;68.49
10476;BME280;26166;48.264;11.436;2024-03-02T10:11:00;95207.44;;;10.20;68.41
10476;BME280;26166;48.264;11.436;2024-03-02T10:14:07;95202.19;;;10.20;68.75
10476;BME280;26166;48.264;11.436;2024-03-02T10:17:09;95199.19;;;10.23;68.61
10476;BME280;26166;48.264;11.436;2024-03-02T10:20:22;95201.81;;;10.23;68.04
10476;BME280;26166;48.264;11.436;2024-03-02T10:23:25;95203.47;;;10.24;68.31
10476;BME280;26166;48.264;11.436;2024-03-02T10:26:25;95201.81;;;10.23;68.21
10476;BME280;26166;48.264;11.436;2024-03-02T10:29:28;95197.56;;;10.22;68.24
10476;BME280;26166;48.264;11.436;2024-03-02T10:32:29;95201.19;;;10.21;68.02
10476;BME280;26166;48.264;11.436;2024-03-02T10:35:29;95187.25;;;10.21;68.12
10476;BME280;26166;48.264;11.436;2024-03-02T10:38:32;95188.06;;;10.21;67.65
10476;BME280;26166;48.264;11.436;2024-03-02T10:41:34;95184.44;;;10.22;67.76
10476;BME280;26166;48.264;11.436;2024-03-02T10:44:37;95178.38;;;10.22;67.87
10476;BME280;26166;48.264;11.436;2024-03-02T10:47:38;95181.00;;;10.22;67.58
10476;BME280;26166;48.264;11.436;2024-03-02T10:50:38;95175.59;;;10.23;67.16
10476;BME280;26166;48.264;11.436;2024-03-02T10:53:38;95167.53;;;10.25;67.06
10476;BME280;26166;48.264;11.436;2024-03-02T10:56:39;95156.22;;;10.24;67.00
10476;BME280;26166;48.264;11.436;2024-03-02T10:59:49;95160.47;;;10.25;66.85
10476;BME280;26166;48.264;11.436;2024-03-02T11:02:56;95158.31;;;10.35;66.59
10476;BME280;26166;48.264;11.436;2024-03-02T11:05:56;95149.06;;;10.40;66.40
10476;BME280;26166;48.264;11.436;2024-03-02T11:08:58;95145.03;;;10.44;66.47
10476;BME280;26166;48.264;11.436;2024-03-02T11:12:03;95137.81;;;10.46;66.42
10476;BME280;26166;48.264;11.436;2024-03-02T11:15:09;95126.88;;;10.49;66.87
10476;BME280;26166;48.264;11.436;2024-03-02T11:18:10;95120.84;;;10.48;66.09
10476;BME280;26166;48.264;11.436;2024-03-02T11:21:11;95125.91;;;10.50;65.95
10476;BME280;26166;48.264;11.436;2024-03-02T11:33:45;95108.72;;;10.47;65.94
10476;BME280;26166;48.264;11.436;2024-03-02T11:36:45;95109.53;;;10.48;65.93
10476;BME280;26166;48.264;11.436;2024-03-02T11:39:48;95105.09;;;10.48;66.15
10476;BME280;26166;48.264;11.436;2024-03-02T11:42:48;95102.28;;;10.50;66.46
10476;BME280;26166;48.264;11.436;2024-03-02T11:45:49;95101.47;;;10.49;66.25
10476;BME280;26166;48.264;11.436;2024-03-02T11:48:56;95100.63;;;10.49;66.65
10476;BME280;26166;48.264;11.436;2024-03-02T11:52:00;95088.53;;;10.48;66.54
10476;BME280;26166;48.264;11.436;2024-03-02T11:55:00;95084.88;;;10.49;66.66
10476;BME280;26166;48.264;11.436;2024-03-02T11:58:03;95079.63;;;10.49;66.95
10476;BME280;26166;48.264;11.436;2024-03-02T12:01:03;95077.22;;;10.47;66.89
10476;BME280;26166;48.264;11.436;2024-03-02T12:04:04;95067.94;;;10.51;67.00
10476;BME280;26166;48.264;11.436;2024-03-02T12:07:05;95070.38;;;10.53;66.83
10476;BME280;26166;48.264;11.436;2024-03-02T12:10:05;95065.13;;;10.53;66.82
10476;BME280;26166;48.264;11.436;2024-03-02T12:13:06;95054.59;;;10.53;66.32
10476;BME280;26166;48.264;11.436;2024-03-02T12:16:07;95055.63;;;10.52;66.50
10476;BME280;26166;48.264;11.436;2024-03-02T12:19:07;95055.25;;;10.55;66.66
10476;BME280;26166;48.264;11.436;2024-03-02T12:22:07;95051.00;;;10.54;66.58
10476;BME280;26166;48.264;11.436;2024-03-02T12:25:08;95041.47;;;10.53;66.66
10476;BME280;26166;48.264;11.436;2024-03-02T12:28:08;95042.13;;;10.55;66.72
10476;BME280;26166;48.264;11.436;2024-03-02T12:31:08;95030.81;;;10.54;66.46
10476;BME280;26166;48.264;11.436;2024-03-02T12:34:08;95033.22;;;10.56;66.59
10476;BME280;26166;48.264;11.436;2024-03-02T12:37:11;95028.78;;;10.56;66.32
10476;BME280;26166;48.264;11.436;2024-03-02T12:40:12;95025.94;;;10.58;66.33
10476;BME280;26166;48.264;11.436;2024-03-02T12:43:12;95011.03;;;10.58;66.41
10476;BME280;26166;48.264;11.436;2024-03-02T12:46:13;95013.44;;;10.60;66.50
10476;BME280;26166;48.264;11.436;2024-03-02T12:49:15;95008.78;;;10.62;66.25
10476;BME280;26166;48.264;11.436;2024-03-02T12:52:16;94997.69;;;10.60;66.20
10476;BME280;26166;48.264;11.436;2024-03-02T12:55:17;95001.34;;;10.59;66.16
10476;BME280;26166;48.264;11.436;2024-03-02T12:58:21;94994.06;;;10.61;65.96
10476;BME280;26166;48.264;11.436;2024-03-02T13:01:22;94986.00;;;10.63;66.47
10476;BME280;26166;48.264;11.436;2024-03-02T13:04:24;94987.59;;;10.64;66.09
10476;BME280;26166;48.264;11.436;2024-03-02T13:07:24;94989.22;;;10.65;66.26
10476;BME280;26166;48.264;11.436;2024-03-02T13:10:26;94984.56;;;10.67;66.18
10476;BME280;26166;48.264;11.436;2024-03-02T13:13:30;94975.06;;;10.66;65.55
10476;BME280;26166;48.264;11.436;2024-03-02T13:16:30;94966.38;;;10.65;66.05
10476;BME280;26166;48.264;11.436;2024-03-02T13:19:30;94972.28;;;10.67;66.00
10476;BME280;26166;48.264;11.436;2024-03-02T13:22:31;94978.34;;;10.68;65.84
10476;BME280;26166;48.264;11.436;2024-03-02T13:25:34;94963.56;;;10.67;66.42
10476;BME280;26166;48.264;11.436;2024-03-02T13:31:39;94948.41;;;10.75;66.04
10476;BME280;26166;48.264;11.436;2024-03-02T13:34:40;94941.97;;;10.84;66.42
10476;BME280;26166;48.264;11.436;2024-03-02T13:37:40;94943.19;;;10.89;65.38
10476;BME280;26166;48.264;11.436;2024-03-02T13:40:40;94946.84;;;10.88;65.58
10476;BME280;26166;48.264;11.436;2024-03-02T13:43:40;94942.38;;;10.88;65.72
10476;BME280;26166;48.264;11.436;2024-03-02T13:46:41;94942.22;;;10.90;65.48
10476;BME280;26166;48.264;11.436;2024-03-02T13:49:42;94944.84;;;10.90;65.26
10476;BME280;26166;48.264;11.436;2024-03-02T13:52:46;94943.19;;;10.89;65.40
10476;BME280;26166;48.264;11.436;2024-03-02T13:55:46;94942.38;;;10.88;64.90
10476;BME280;26166;48.264;11.436;2024-03-02T13:58:47;94941.59;;;10.88;65.29
10476;BME280;26166;48.264;11.436;2024-03-02T14:01:48;94938.16;;;10.87;64.98
10476;BME280;26166;48.264;11.436;2024-03-02T14:04:48;94938.94;;;10.88;64.81
10476;BME280;26166;48.264;11.436;2024-03-02T14:07:48;94931.06;;;10.88;64.50
10476;BME280;26166;48.264;11.436;2024-03-02T14:10:49;94925.81;;;10.88;64.51
10476;BME280;26166;48.264;11.436;2024-03-02T14:13:49;94934.72;;;10.86;64.53
10476;BME280;26166;48.264;11.436;2024-03-02T14:16:57;94928.66;;;10.86;63.96
10476;BME280;26166;48.264;11.436;2024-03-02T14:20:00;94926.84;;;10.86;64.35
10476;BME280;26166;48.264;11.436;2024-03-02T14:23:00;94929.47;;;10.86;64.10
10476;BME280;26166;48.264;11.436;2024-03-02T14:26:02;94927.63;;;10.87;63.91
10476;BME280;26166;48.264;11.436;2024-03-02T14:29:03;94918.16;;;10.86;64.06
10476;BME280;26166;48.264;11.436;2024-03-02T14:32:03;94922.59;;;10.85;64.28
10476;BME280;26166;48.264;11.436;2024-03-02T14:35:04;94914.09;;;10.83;64.25
10476;BME280;26166;48.264;11.436;2024-03-02T14:38:04;94914.09;;;10.83;63.92
10476;BME280;26166;48.264;11.436;2024-03-02T14:41:04;94911.47;;;10.83;64.38
10476;BME280;26166;48.264;11.436;2024-03-02T14:44:05;94902.78;;;10.83;64.21
10476;BME280;26166;48.264;11.436;2024-03-02T14:47:05;94904.59;;;10.82;64.39
10476;BME280;26166;48.264;11.436;2024-03-02T14:50:06;94905.63;;;10.81;64.26
10476;BME280;26166;48.264;11.436;2024-03-02T14:53:07;94901.16;;;10.82;64.45
10476;BME280;26166;48.264;11.436;2024-03-02T14:56:07;94898.53;;;10.82;64.53
10476;BME280;26166;48.264;11.436;2024-03-02T14:59:08;94893.50;;;10.80;64.80
10476;BME280;26166;48.264;11.436;2024-03-02T15:02:08;94894.31;;;10.81;64.61
10476;BME280;26166;48.264;11.436;2024-03-02T15:05:08;94885.63;;;10.80;64.54
10476;BME280;26166;48.264;11.436;2024-03-02T15:08:08;94885.41;;;10.82;64.30
10476;BME280;26166;48.264;11.436;2024-03-02T15:11:09;94886.44;;;10.81;64.43
10476;BME280;26166;48.264;11.436;2024-03-02T15:14:09;94881.19;;;10.81;64.66
10476;BME280;26166;48.264;11.436;2024-03-02T15:17:11;94876.91;;;10.80;64.63
10476;BME280;26166;48.264;11.436;2024-03-02T15:20:12;94884.59;;;10.81;64.80
10476;BME280;26166;48.264;11.436;2024-03-02T15:23:12;94872.50;;;10.80;64.60
10476;BME280;26166;48.264;11.436;2024-03-02T15:26:12;94880.16;;;10.82;64.75
10476;BME280;26166;48.264;11.436;2024-03-02T15:29:12;94874.09;;;10.81;64.76
10476;BME280;26166;48.264;11.436;2024-03-02T15:32:12;94875.91;;;10.81;65.10
10476;BME280;26166;48.264;11.436;2024-03-02T15:35:13;94878.53;;;10.81;64.87
10476;BME280;26166;48.264;11.436;2024-03-02T15:38:13;94873.47;;;10.79;64.99
10476;BME280;26166;48.264;11.436;2024-03-02T15:41:15;94873.69;;;10.78;64.92
10476;BME280;26166;48.264;11.436;2024-03-02T15:44:15;94871.88;;;10.78;64.87
10476;BME280;26166;48.264;11.436;2024-03-02T15:47:15;94880.38;;;10.80;64.94
10476;BME280;26166;48.264;11.436;2024-03-02T15:50:15;94885.00;;;10.78;65.30
10476;BME280;26166;48.264;11.436;2024-03-02T15:53:16;94872.06;;;10.77;65.36
10476;BME280;26166;48.264;11.436;2024-03-02T15:56:16;94874.69;;;10.77;65.51
10476;BME280;26166;48.264;11.436;2024-03-02T15:59:16;94871.06;;;10.78;65.31